sensor_id;sensor_type;location;lat;lon;timestamp;temperature;humidity
26049;DHT22;13822;51.568;5.086;2024-03-25T00:05:59;4.30;99.90
26049;DHT22;13822;51.568;5.086;2024-03-25T00:17:40;4.30;99.90
26049;DHT22;13822;51.568;5.086;2024-03-25T00:35:05;4.10;99.90
26049;DHT22;13822;51.568;5.086;2024-03-25T00:40:33;4.20;99.90
26049;DHT22;13822;51.568;5.086;2024-03-25T00:52:14;4.20;99.90
26049;DHT22;13822;51.568;5.086;2024-03-25T00:57:24;4.20;99.90
26049;DHT22;13822;51.568;5.086;2024-03-25T01:02:45;4.10;99.90
26049;DHT22;13822;51.568;5.086;2024-03-25T01:08:12;4.10;99.90
26049;DHT22;13822;51.568;5.086;2024-03-25T01:13:51;4.10;99.90
26049;DHT22;13822;51.568;5.086;2024-03-25T01:19:09;4.10;99.90
26049;DHT22;13822;51.568;5.086;2024-03-25T01:24:32;4.10;99.90
26049;DHT22;13822;51.568;5.086;2024-03-25T01:30:29;4.00;99.90
26049;DHT22;13822;51.568;5.086;2024-03-25T01:36:31;4.10;99.90
26049;DHT22;13822;51.568;5.086;2024-03-25T01:42:06;4.00;99.90
26049;DHT22;13822;51.568;5.086;2024-03-25T01:48:06;4.00;99.90
26049;DHT22;13822;51.568;5.086;2024-03-25T01:53:57;4.00;99.90
26049;DHT22;13822;51.568;5.086;2024-03-25T01:59:41;4.10;99.90
26049;DHT22;13822;51.568;5.086;2024-03-25T02:04:56;3.90;99.90
26049;DHT22;13822;51.568;5.086;2024-03-25T02:10:12;3.90;99.90
26049;DHT22;13822;51.568;5.086;2024-03-25T02:15:38;3.90;99.90
26049;DHT22;13822;51.568;5.086;2024-03-25T02:21:30;3.80;99.90
26049;DHT22;13822;51.568;5.086;2024-03-25T02:26:45;3.90;99.90
26049;DHT22;13822;51.568;5.086;2024-03-25T02:31:59;3.90;99.90
26049;DHT22;13822;51.568;5.086;2024-03-25T02:37:34;3.90;99.90
26049;DHT22;13822;51.568;5.086;2024-03-25T02:43:04;3.90;99.90
26049;DHT22;13822;51.568;5.086;2024-03-25T02:48:53;3.90;99.90
26049;DHT22;13822;51.568;5.086;2024-03-25T02:54:16;3.80;99.90
26049;DHT22;13822;51.568;5.086;2024-03-25T02:59:50;3.90;99.90
26049;DHT22;13822;51.568;5.086;2024-03-25T03:05:06;3.80;99.90
26049;DHT22;13822;51.568;5.086;2024-03-25T03:10:22;3.80;99.90
26049;DHT22;13822;51.568;5.086;2024-03-25T03:15:43;3.80;99.90
26049;DHT22;13822;51.568;5.086;2024-03-25T03:21:01;3.80;99.90
26049;DHT22;13822;51.568;5.086;2024-03-25T03:26:25;3.70;99.90
26049;DHT22;13822;51.568;5.086;2024-03-25T03:31:37;3.70;99.90
26049;DHT22;13822;51.568;5.086;2024-03-25T03:36:44;3.60;99.90
26049;DHT22;13822;51.568;5.086;2024-03-25T03:42:50;3.60;99.90
26049;DHT22;13822;51.568;5.086;2024-03-25T03:48:15;3.60;99.90
26049;DHT22;13822;51.568;5.086;2024-03-25T03:53:41;3.60;99.90
26049;DHT22;13822;51.568;5.086;2024-03-25T04:04:53;3.60;99.90
26049;DHT22;13822;51.568;5.086;2024-03-25T04:10:29;3.50;99.90
26049;DHT22;13822;51.568;5.086;2024-03-25T04:15:45;3.60;99.90
26049;DHT22;13822;51.568;5.086;2024-03-25T04:21:11;3.50;99.90
26049;DHT22;13822;51.568;5.086;2024-03-25T04:26:26;3.40;99.90
26049;DHT22;13822;51.568;5.086;2024-03-25T04:31:39;3.50;99.90
26049;DHT22;13822;51.568;5.086;2024-03-25T04:37:16;3.50;99.90
26049;DHT22;13822;51.568;5.086;2024-03-25T04:42:40;3.40;99.90
26049;DHT22;13822;51.568;5.086;2024-03-25T04:47:57;3.40;99.90
26049;DHT22;13822;51.568;5.086;2024-03-25T04:53:34;3.30;99.90
26049;DHT22;13822;51.568;5.086;2024-03-25T04:58:43;3.30;99.90
26049;DHT22;13822;51.568;5.086;2024-03-25T05:04:28;3.30;99.90
26049;DHT22;13822;51.568;5.086;2024-03-25T05:09:44;3.20;99.90
26049;DHT22;13822;51.568;5.086;2024-03-25T05:15:13;3.20;99.90
26049;DHT22;13822;51.568;5.086;2024-03-25T05:20:32;3.20;99.90
26049;DHT22;13822;51.568;5.086;2024-03-25T05:25:43;3.20;99.90
26049;DHT22;13822;51.568;5.086;2024-03-25T05:31:15;3.20;99.90
26049;DHT22;13822;51.568;5.086;2024-03-25T05:48:11;3.10;99.90
26049;DHT22;13822;51.568;5.086;2024-03-25T05:53:27;3.20;99.90
26049;DHT22;13822;51.568;5.086;2024-03-25T05:58:46;3.20;99.90
26049;DHT22;13822;51.568;5.086;2024-03-25T06:04:05;3.10;99.90
26049;DHT22;13822;51.568;5.086;2024-03-25T06:09:43;3.20;99.90
26049;DHT22;13822;51.568;5.086;2024-03-25T06:15:21;3.10;99.90
26049;DHT22;13822;51.568;5.086;2024-03-25T06:21:11;3.10;99.90
26049;DHT22;13822;51.568;5.086;2024-03-25T06:26:43;3.10;99.90
26049;DHT22;13822;51.568;5.086;2024-03-25T06:31:44;3.20;99.90
26049;DHT22;13822;51.568;5.086;2024-03-25T06:37:03;3.20;99.90
26049;DHT22;13822;51.568;5.086;2024-03-25T06:42:05;3.20;99.90
26049;DHT22;13822;51.568;5.086;2024-03-25T06:47:06;3.30;99.90
26049;DHT22;13822;51.568;5.086;2024-03-25T06:52:07;3.30;99.90
26049;DHT22;13822;51.568;5.086;2024-03-25T06:57:08;3.40;99.90
26049;DHT22;13822;51.568;5.086;2024-03-25T07:02:09;3.50;99.90
26049;DHT22;13822;51.568;5.086;2024-03-25T07:07:10;3.50;99.90
26049;DHT22;13822;51.568;5.086;2024-03-25T07:12:11;3.60;99.90
26049;DHT22;13822;51.568;5.086;2024-03-25T07:17:15;3.70;99.90
26049;DHT22;13822;51.568;5.086;2024-03-25T07:22:16;3.80;99.90
26049;DHT22;13822;51.568;5.086;2024-03-25T07:27:17;3.90;99.90
26049;DHT22;13822;51.568;5.086;2024-03-25T07:32:18;4.10;99.90
26049;DHT22;13822;51.568;5.086;2024-03-25T07:37:19;4.20;99.90
26049;DHT22;13822;51.568;5.086;2024-03-25T07:42:20;4.40;99.90
26049;DHT22;13822;51.568;5.086;2024-03-25T07:47:21;4.50;99.90
26049;DHT22;13822;51.568;5.086;2024-03-25T07:52:22;4.60;99.90
26049;DHT22;13822;51.568;5.086;2024-03-25T07:57:23;4.80;99.90
26049;DHT22;13822;51.568;5.086;2024-03-25T08:02:24;5.00;99.90
26049;DHT22;13822;51.568;5.086;2024-03-25T08:07:25;5.10;99.90
26049;DHT22;13822;51.568;5.086;2024-03-25T08:12:27;5.20;99.90
26049;DHT22;13822;51.568;5.086;2024-03-25T08:17:28;5.30;99.90
26049;DHT22;13822;51.568;5.086;2024-03-25T08:22:29;5.40;99.90
26049;DHT22;13822;51.568;5.086;2024-03-25T08:27:30;5.50;99.90
26049;DHT22;13822;51.568;5.086;2024-03-25T08:32:31;5.70;99.90
26049;DHT22;13822;51.568;5.086;2024-03-25T08:37:33;5.80;99.90
26049;DHT22;13822;51.568;5.086;2024-03-25T08:42:34;6.00;99.90
26049;DHT22;13822;51.568;5.086;2024-03-25T08:47:35;6.10;99.90
26049;DHT22;13822;51.568;5.086;2024-03-25T08:52:39;6.30;99.90
26049;DHT22;13822;51.568;5.086;2024-03-25T08:57:40;6.50;99.90
26049;DHT22;13822;51.568;5.086;2024-03-25T09:02:41;6.70;99.90
26049;DHT22;13822;51.568;5.086;2024-03-25T09:07:42;6.90;99.90
26049;DHT22;13822;51.568;5.086;2024-03-25T09:12:43;7.00;99.90
26049;DHT22;13822;51.568;5.086;2024-03-25T09:17:44;7.20;99.90
26049;DHT22;13822;51.568;5.086;2024-03-25T09:22:46;7.30;99.90
26049;DHT22;13822;51.568;5.086;2024-03-25T09:27:50;7.50;99.90
26049;DHT22;13822;51.568;5.086;2024-03-25T09:32:51;7.70;99.90
26049;DHT22;13822;51.568;5.086;2024-03-25T09:37:52;7.90;99.90
26049;DHT22;13822;51.568;5.086;2024-03-25T09:42:56;8.00;99.90
26049;DHT22;13822;51.568;5.086;2024-03-25T09:47:57;8.20;99.90
26049;DHT22;13822;51.568;5.086;2024-03-25T09:52:59;8.40;99.90
26049;DHT22;13822;51.568;5.086;2024-03-25T09:58:00;8.50;99.90
26049;DHT22;13822;51.568;5.086;2024-03-25T10:03:01;8.70;99.90
26049;DHT22;13822;51.568;5.086;2024-03-25T10:08:03;8.90;99.90
26049;DHT22;13822;51.568;5.086;2024-03-25T10:13:04;9.20;99.90
26049;DHT22;13822;51.568;5.086;2024-03-25T10:18:06;9.50;99.90
26049;DHT22;13822;51.568;5.086;2024-03-25T10:23:10;9.80;99.90
26049;DHT22;13822;51.568;5.086;2024-03-25T10:28:13;10.10;99.90
26049;DHT22;13822;51.568;5.086;2024-03-25T10:33:14;10.30;99.90
26049;DHT22;13822;51.568;5.086;2024-03-25T10:38:17;10.50;99.90
26049;DHT22;13822;51.568;5.086;2024-03-25T10:43:20;10.80;99.90
26049;DHT22;13822;51.568;5.086;2024-03-25T10:48:26;11.10;99.90
26049;DHT22;13822;51.568;5.086;2024-03-25T10:53:29;11.70;99.90
26049;DHT22;13822;51.568;5.086;2024-03-25T10:58:30;12.30;99.90
26049;DHT22;13822;51.568;5.086;2024-03-25T11:03:33;12.90;99.90
26049;DHT22;13822;51.568;5.086;2024-03-25T11:08:34;13.40;99.90
26049;DHT22;13822;51.568;5.086;2024-03-25T11:13:37;14.00;99.90
26049;DHT22;13822;51.568;5.086;2024-03-25T11:18:38;14.50;99.90
26049;DHT22;13822;51.568;5.086;2024-03-25T11:23:42;14.90;99.90
26049;DHT22;13822;51.568;5.086;2024-03-25T11:28:43;15.50;99.90
26049;DHT22;13822;51.568;5.086;2024-03-25T11:33:44;16.00;99.90
26049;DHT22;13822;51.568;5.086;2024-03-25T11:38:45;16.50;99.90
26049;DHT22;13822;51.568;5.086;2024-03-25T11:43:47;16.70;99.90
26049;DHT22;13822;51.568;5.086;2024-03-25T11:48:48;16.80;99.90
26049;DHT22;13822;51.568;5.086;2024-03-25T11:53:49;16.90;99.90
26049;DHT22;13822;51.568;5.086;2024-03-25T11:58:50;17.30;99.90
26049;DHT22;13822;51.568;5.086;2024-03-25T12:03:51;17.60;99.90
26049;DHT22;13822;51.568;5.086;2024-03-25T12:08:52;17.80;99.90
26049;DHT22;13822;51.568;5.086;2024-03-25T12:14:11;17.90;99.90
26049;DHT22;13822;51.568;5.086;2024-03-25T12:19:13;17.50;99.90
26049;DHT22;13822;51.568;5.086;2024-03-25T12:24:14;17.50;99.90
26049;DHT22;13822;51.568;5.086;2024-03-25T12:29:15;17.40;99.90
26049;DHT22;13822;51.568;5.086;2024-03-25T12:34:16;17.30;99.90
26049;DHT22;13822;51.568;5.086;2024-03-25T12:39:18;17.60;99.90
26049;DHT22;13822;51.568;5.086;2024-03-25T12:44:19;17.60;99.90
26049;DHT22;13822;51.568;5.086;2024-03-25T12:49:21;17.20;99.90
26049;DHT22;13822;51.568;5.086;2024-03-25T12:54:22;16.80;99.90
26049;DHT22;13822;51.568;5.086;2024-03-25T12:59:23;16.70;99.90
26049;DHT22;13822;51.568;5.086;2024-03-25T13:04:25;16.30;99.90
26049;DHT22;13822;51.568;5.086;2024-03-25T13:09:26;16.10;99.90
26049;DHT22;13822;51.568;5.086;2024-03-25T13:14:27;16.20;99.90
26049;DHT22;13822;51.568;5.086;2024-03-25T13:19:28;15.90;99.90
26049;DHT22;13822;51.568;5.086;2024-03-25T13:24:29;15.30;99.90
26049;DHT22;13822;51.568;5.086;2024-03-25T13:29:30;15.30;99.90
26049;DHT22;13822;51.568;5.086;2024-03-25T13:34:31;15.30;99.90
26049;DHT22;13822;51.568;5.086;2024-03-25T13:39:32;15.10;99.90
26049;DHT22;13822;51.568;5.086;2024-03-25T13:44:33;15.10;99.90
26049;DHT22;13822;51.568;5.086;2024-03-25T13:49:35;15.90;99.90
26049;DHT22;13822;51.568;5.086;2024-03-25T13:54:36;16.90;99.90
26049;DHT22;13822;51.568;5.086;2024-03-25T13:59:37;17.90;99.90
26049;DHT22;13822;51.568;5.086;2024-03-25T14:04:38;18.90;99.90
26049;DHT22;13822;51.568;5.086;2024-03-25T14:09:39;19.60;99.90
26049;DHT22;13822;51.568;5.086;2024-03-25T14:14:39;19.80;99.90
26049;DHT22;13822;51.568;5.086;2024-03-25T14:19:41;19.80;99.90
26049;DHT22;13822;51.568;5.086;2024-03-25T14:24:42;19.60;97.70
26049;DHT22;13822;51.568;5.086;2024-03-25T14:29:43;20.10;99.90
26049;DHT22;13822;51.568;5.086;2024-03-25T14:34:44;20.60;99.90
26049;DHT22;13822;51.568;5.086;2024-03-25T14:39:46;20.30;99.90
26049;DHT22;13822;51.568;5.086;2024-03-25T14:44:46;20.10;99.90
26049;DHT22;13822;51.568;5.086;2024-03-25T14:49:49;20.10;99.90
26049;DHT22;13822;51.568;5.086;2024-03-25T14:54:50;20.20;99.90
26049;DHT22;13822;51.568;5.086;2024-03-25T14:59:51;20.30;99.90
26049;DHT22;13822;51.568;5.086;2024-03-25T15:04:52;20.30;99.90
26049;DHT22;13822;51.568;5.086;2024-03-25T15:09:54;20.40;99.90
26049;DHT22;13822;51.568;5.086;2024-03-25T15:14:55;20.30;99.90
26049;DHT22;13822;51.568;5.086;2024-03-25T15:19:56;19.90;99.90
26049;DHT22;13822;51.568;5.086;2024-03-25T15:24:57;19.80;99.90
26049;DHT22;13822;51.568;5.086;2024-03-25T15:29:58;19.50;93.20
26049;DHT22;13822;51.568;5.086;2024-03-25T15:34:59;19.20;99.90
26049;DHT22;13822;51.568;5.086;2024-03-25T15:40:00;18.90;99.90
26049;DHT22;13822;51.568;5.086;2024-03-25T15:45:01;18.60;99.90
26049;DHT22;13822;51.568;5.086;2024-03-25T15:50:03;18.90;98.20
26049;DHT22;13822;51.568;5.086;2024-03-25T15:55:05;19.10;93.90
26049;DHT22;13822;51.568;5.086;2024-03-25T16:00:07;19.10;99.90
26049;DHT22;13822;51.568;5.086;2024-03-25T16:05:09;18.40;99.30
26049;DHT22;13822;51.568;5.086;2024-03-25T16:10:10;17.80;94.60
26049;DHT22;13822;51.568;5.086;2024-03-25T16:15:11;17.10;90.50
26049;DHT22;13822;51.568;5.086;2024-03-25T16:20:12;16.30;75.80
26049;DHT22;13822;51.568;5.086;2024-03-25T16:25:14;15.60;93.70
26049;DHT22;13822;51.568;5.086;2024-03-25T16:30:15;15.20;82.00
26049;DHT22;13822;51.568;5.086;2024-03-25T16:35:16;14.70;81.70
26049;DHT22;13822;51.568;5.086;2024-03-25T16:40:17;14.40;68.30
26049;DHT22;13822;51.568;5.086;2024-03-25T16:45:18;14.10;84.80
26049;DHT22;13822;51.568;5.086;2024-03-25T16:50:20;13.80;90.70
26049;DHT22;13822;51.568;5.086;2024-03-25T16:55:21;13.40;92.30
26049;DHT22;13822;51.568;5.086;2024-03-25T17:00:22;13.20;91.50
26049;DHT22;13822;51.568;5.086;2024-03-25T17:05:23;13.00;91.90
26049;DHT22;13822;51.568;5.086;2024-03-25T17:10:24;12.80;94.70
26049;DHT22;13822;51.568;5.086;2024-03-25T17:15:25;12.50;91.90
26049;DHT22;13822;51.568;5.086;2024-03-25T17:20:27;12.30;94.20
26049;DHT22;13822;51.568;5.086;2024-03-25T17:25:28;12.20;97.40
26049;DHT22;13822;51.568;5.086;2024-03-25T17:30:31;12.00;92.80
26049;DHT22;13822;51.568;5.086;2024-03-25T17:35:32;11.80;93.80
26049;DHT22;13822;51.568;5.086;2024-03-25T17:40:33;11.70;98.50
26049;DHT22;13822;51.568;5.086;2024-03-25T17:45:36;11.60;98.30
26049;DHT22;13822;51.568;5.086;2024-03-25T17:50:37;11.40;97.20
26049;DHT22;13822;51.568;5.086;2024-03-25T17:55:38;11.30;96.60
26049;DHT22;13822;51.568;5.086;2024-03-25T18:00:39;11.20;97.40
26049;DHT22;13822;51.568;5.086;2024-03-25T18:05:40;11.00;96.20
26049;DHT22;13822;51.568;5.086;2024-03-25T18:10:41;10.90;98.90
26049;DHT22;13822;51.568;5.086;2024-03-25T18:15:53;10.80;99.00
26049;DHT22;13822;51.568;5.086;2024-03-25T18:20:54;10.60;98.20
26049;DHT22;13822;51.568;5.086;2024-03-25T18:25:56;10.50;99.90
26049;DHT22;13822;51.568;5.086;2024-03-25T18:31:16;10.40;99.90
26049;DHT22;13822;51.568;5.086;2024-03-25T18:36:28;10.30;99.90
26049;DHT22;13822;51.568;5.086;2024-03-25T18:42:37;10.20;99.90
26049;DHT22;13822;51.568;5.086;2024-03-25T18:47:44;10.00;97.80
26049;DHT22;13822;51.568;5.086;2024-03-25T18:53:37;10.00;99.90
26049;DHT22;13822;51.568;5.086;2024-03-25T18:58:51;9.90;99.90
26049;DHT22;13822;51.568;5.086;2024-03-25T19:03:56;9.80;98.90
26049;DHT22;13822;51.568;5.086;2024-03-25T19:09:22;9.70;97.90
26049;DHT22;13822;51.568;5.086;2024-03-25T19:21:42;9.60;99.90
26049;DHT22;13822;51.568;5.086;2024-03-25T19:27:11;9.50;99.90
26049;DHT22;13822;51.568;5.086;2024-03-25T19:32:23;9.40;99.90
26049;DHT22;13822;51.568;5.086;2024-03-25T19:50:54;9.10;99.90
26049;DHT22;13822;51.568;5.086;2024-03-25T19:56:08;9.10;99.90
26049;DHT22;13822;51.568;5.086;2024-03-25T20:08:11;8.90;98.70
26049;DHT22;13822;51.568;5.086;2024-03-25T20:13:37;8.80;99.90
26049;DHT22;13822;51.568;5.086;2024-03-25T20:24:36;8.70;99.90
26049;DHT22;13822;51.568;5.086;2024-03-25T20:29:45;8.60;99.90
26049;DHT22;13822;51.568;5.086;2024-03-25T20:41:46;8.50;99.80
26049;DHT22;13822;51.568;5.086;2024-03-25T20:47:47;8.40;99.90
26049;DHT22;13822;51.568;5.086;2024-03-25T20:59:39;8.40;99.90
26049;DHT22;13822;51.568;5.086;2024-03-25T21:06:13;8.30;99.90
26049;DHT22;13822;51.568;5.086;2024-03-25T21:18:19;8.20;99.90
26049;DHT22;13822;51.568;5.086;2024-03-25T21:29:29;8.00;99.90
26049;DHT22;13822;51.568;5.086;2024-03-25T21:34:39;7.90;99.90
26049;DHT22;13822;51.568;5.086;2024-03-25T21:41:14;7.90;99.90
26049;DHT22;13822;51.568;5.086;2024-03-25T21:47:23;7.80;99.90
26049;DHT22;13822;51.568;5.086;2024-03-25T21:54:14;7.80;99.90
26049;DHT22;13822;51.568;5.086;2024-03-25T21:59:18;7.70;99.90
26049;DHT22;13822;51.568;5.086;2024-03-25T22:10:51;7.60;99.90
26049;DHT22;13822;51.568;5.086;2024-03-25T22:17:17;7.60;99.90
26049;DHT22;13822;51.568;5.086;2024-03-25T22:22:24;7.50;99.90
26049;DHT22;13822;51.568;5.086;2024-03-25T22:27:46;7.40;99.90
26049;DHT22;13822;51.568;5.086;2024-03-25T22:33:54;7.30;99.90
26049;DHT22;13822;51.568;5.086;2024-03-25T22:39:10;7.30;99.90
26049;DHT22;13822;51.568;5.086;2024-03-25T22:44:14;7.30;99.90
26049;DHT22;13822;51.568;5.086;2024-03-25T22:49:20;7.30;99.90
26049;DHT22;13822;51.568;5.086;2024-03-25T22:54:26;7.20;99.90
26049;DHT22;13822;51.568;5.086;2024-03-25T22:59:32;7.20;99.90
26049;DHT22;13822;51.568;5.086;2024-03-25T23:04:54;7.20;99.90
26049;DHT22;13822;51.568;5.086;2024-03-25T23:10:03;7.20;99.90
26049;DHT22;13822;51.568;5.086;2024-03-25T23:15:26;7.20;99.90
26049;DHT22;13822;51.568;5.086;2024-03-25T23:20:44;7.20;99.90
26049;DHT22;13822;51.568;5.086;2024-03-25T23:25:47;7.10;99.90
26049;DHT22;13822;51.568;5.086;2024-03-25T23:30:57;7.20;99.90
26049;DHT22;13822;51.568;5.086;2024-03-25T23:36:09;7.10;99.90
26049;DHT22;13822;51.568;5.086;2024-03-25T23:41:15;7.10;99.90
26049;DHT22;13822;51.568;5.086;2024-03-25T23:46:31;7.10;99.90
26049;DHT22;13822;51.568;5.086;2024-03-25T23:52:00;7.10;99.90
26049;DHT22;13822;51.568;5.086;2024-03-25T23:57:09;7.10;99.90
